logo
Search for airport 
image banner adimage banner adimage banner ad
image banner ad

FMNO - Soalala

Located in , Madagascar

ICAO - FMNO, IATA - DWB

Data provided by Airmate  

General information

Coordinates: S16°6'3" E45°21'25"
Elevation is 141 feet MSL.
 
View others Airports in Mahajanga

Operational data

Special qualification required
Current time UTC:
Current local time:
Weather at : - ( 0 km )
METAR: YAMB 231853Z AUTO 07001KT 9999 // NCD 03/03 Q1025 RF00.0/000.0
View NOTAMs / SUP AIP / TFR affecting this airport [VIEW]
Communications frequencies: [VIEW]

Runways:

RWY identifierQFULength (ft)Width (ft)SurfaceLDA (ft)
1300UNK
3100UNK

Airport contact information

Address: Madagascar

Satellite view of FMNO